sensor_id;sensor_type;location;lat;lon;timestamp;P1;durP1;ratioP1;P2;durP2;ratioP2
10872;SDS011;34586;53.616;10.032;2024-03-08T00:00:58;21.63;;;15.00;;
10872;SDS011;34586;53.616;10.032;2024-03-08T00:03:24;21.90;;;16.00;;
10872;SDS011;34586;53.616;10.032;2024-03-08T00:05:49;21.77;;;15.47;;
10872;SDS011;34586;53.616;10.032;2024-03-08T00:08:15;23.87;;;15.07;;
10872;SDS011;34586;53.616;10.032;2024-03-08T00:10:40;23.97;;;16.30;;
10872;SDS011;34586;53.616;10.032;2024-03-08T00:13:06;23.23;;;15.57;;
10872;SDS011;34586;53.616;10.032;2024-03-08T00:15:32;22.60;;;16.57;;
10872;SDS011;34586;53.616;10.032;2024-03-08T00:17:57;22.73;;;16.33;;
10872;SDS011;34586;53.616;10.032;2024-03-08T00:20:23;24.87;;;16.77;;
10872;SDS011;34586;53.616;10.032;2024-03-08T00:22:48;23.37;;;15.37;;
10872;SDS011;34586;53.616;10.032;2024-03-08T00:25:14;23.10;;;16.23;;
10872;SDS011;34586;53.616;10.032;2024-03-08T00:27:41;22.33;;;15.00;;
10872;SDS011;34586;53.616;10.032;2024-03-08T00:30:06;22.87;;;16.07;;
10872;SDS011;34586;53.616;10.032;2024-03-08T00:32:33;21.23;;;15.27;;
10872;SDS011;34586;53.616;10.032;2024-03-08T00:34:59;22.77;;;15.33;;
10872;SDS011;34586;53.616;10.032;2024-03-08T00:37:24;21.53;;;15.83;;
10872;SDS011;34586;53.616;10.032;2024-03-08T00:39:50;23.53;;;16.33;;
10872;SDS011;34586;53.616;10.032;2024-03-08T00:42:17;24.73;;;15.83;;
10872;SDS011;34586;53.616;10.032;2024-03-08T00:44:46;28.37;;;15.77;;
10872;SDS011;34586;53.616;10.032;2024-03-08T00:47:13;23.70;;;16.30;;
10872;SDS011;34586;53.616;10.032;2024-03-08T00:49:40;19.23;;;14.63;;
10872;SDS011;34586;53.616;10.032;2024-03-08T00:52:07;20.97;;;15.70;;
10872;SDS011;34586;53.616;10.032;2024-03-08T00:54:33;22.17;;;15.80;;
10872;SDS011;34586;53.616;10.032;2024-03-08T00:57:02;22.40;;;16.10;;
10872;SDS011;34586;53.616;10.032;2024-03-08T00:59:28;24.10;;;15.93;;
10872;SDS011;34586;53.616;10.032;2024-03-08T01:01:54;22.70;;;16.07;;
10872;SDS011;34586;53.616;10.032;2024-03-08T01:04:20;22.83;;;15.80;;
10872;SDS011;34586;53.616;10.032;2024-03-08T01:06:46;23.10;;;15.20;;
10872;SDS011;34586;53.616;10.032;2024-03-08T01:09:12;23.43;;;15.77;;
10872;SDS011;34586;53.616;10.032;2024-03-08T01:11:38;24.83;;;16.00;;
10872;SDS011;34586;53.616;10.032;2024-03-08T01:14:04;24.17;;;16.30;;
10872;SDS011;34586;53.616;10.032;2024-03-08T01:16:30;24.60;;;16.13;;
10872;SDS011;34586;53.616;10.032;2024-03-08T01:18:58;23.60;;;15.33;;
10872;SDS011;34586;53.616;10.032;2024-03-08T01:21:23;23.30;;;16.17;;
10872;SDS011;34586;53.616;10.032;2024-03-08T01:23:49;23.27;;;16.23;;
10872;SDS011;34586;53.616;10.032;2024-03-08T01:26:14;21.10;;;14.43;;
10872;SDS011;34586;53.616;10.032;2024-03-08T01:28:41;26.60;;;16.73;;
10872;SDS011;34586;53.616;10.032;2024-03-08T01:31:07;22.57;;;15.80;;
10872;SDS011;34586;53.616;10.032;2024-03-08T01:33:32;24.97;;;16.57;;
10872;SDS011;34586;53.616;10.032;2024-03-08T01:35:58;23.87;;;15.93;;
10872;SDS011;34586;53.616;10.032;2024-03-08T01:38:24;23.60;;;16.20;;
10872;SDS011;34586;53.616;10.032;2024-03-08T01:40:50;23.00;;;15.70;;
10872;SDS011;34586;53.616;10.032;2024-03-08T01:43:17;24.37;;;16.20;;
10872;SDS011;34586;53.616;10.032;2024-03-08T01:45:48;22.83;;;15.97;;
10872;SDS011;34586;53.616;10.032;2024-03-08T01:48:16;23.33;;;15.43;;
10872;SDS011;34586;53.616;10.032;2024-03-08T01:50:43;25.77;;;16.37;;
10872;SDS011;34586;53.616;10.032;2024-03-08T01:53:10;25.10;;;16.63;;
10872;SDS011;34586;53.616;10.032;2024-03-08T01:55:37;22.63;;;16.13;;
10872;SDS011;34586;53.616;10.032;2024-03-08T01:58:04;25.03;;;16.60;;
10872;SDS011;34586;53.616;10.032;2024-03-08T02:00:30;25.50;;;17.13;;
10872;SDS011;34586;53.616;10.032;2024-03-08T02:02:57;23.93;;;16.33;;
10872;SDS011;34586;53.616;10.032;2024-03-08T02:05:23;24.40;;;15.77;;
10872;SDS011;34586;53.616;10.032;2024-03-08T02:07:50;23.57;;;15.87;;
10872;SDS011;34586;53.616;10.032;2024-03-08T02:10:16;25.87;;;16.33;;
10872;SDS011;34586;53.616;10.032;2024-03-08T02:12:42;21.43;;;16.00;;
10872;SDS011;34586;53.616;10.032;2024-03-08T02:15:08;20.87;;;15.37;;
10872;SDS011;34586;53.616;10.032;2024-03-08T02:17:33;25.47;;;15.83;;
10872;SDS011;34586;53.616;10.032;2024-03-08T02:19:59;24.90;;;16.30;;
10872;SDS011;34586;53.616;10.032;2024-03-08T02:22:30;23.70;;;14.90;;
10872;SDS011;34586;53.616;10.032;2024-03-08T02:24:57;25.10;;;15.77;;
10872;SDS011;34586;53.616;10.032;2024-03-08T02:27:24;23.77;;;15.63;;
10872;SDS011;34586;53.616;10.032;2024-03-08T02:29:54;26.20;;;17.03;;
10872;SDS011;34586;53.616;10.032;2024-03-08T02:32:21;25.30;;;15.97;;
10872;SDS011;34586;53.616;10.032;2024-03-08T02:34:47;24.00;;;16.07;;
10872;SDS011;34586;53.616;10.032;2024-03-08T02:37:14;24.23;;;15.30;;
10872;SDS011;34586;53.616;10.032;2024-03-08T02:39:40;24.87;;;16.77;;
10872;SDS011;34586;53.616;10.032;2024-03-08T02:42:06;25.10;;;16.37;;
10872;SDS011;34586;53.616;10.032;2024-03-08T02:44:32;27.03;;;17.43;;
10872;SDS011;34586;53.616;10.032;2024-03-08T02:46:58;24.07;;;16.73;;
10872;SDS011;34586;53.616;10.032;2024-03-08T02:49:24;28.00;;;17.23;;
10872;SDS011;34586;53.616;10.032;2024-03-08T02:51:51;25.00;;;16.80;;
10872;SDS011;34586;53.616;10.032;2024-03-08T02:54:17;24.97;;;16.57;;
10872;SDS011;34586;53.616;10.032;2024-03-08T02:56:44;24.80;;;17.03;;
10872;SDS011;34586;53.616;10.032;2024-03-08T02:59:11;27.27;;;18.13;;
10872;SDS011;34586;53.616;10.032;2024-03-08T03:01:37;21.80;;;16.47;;
10872;SDS011;34586;53.616;10.032;2024-03-08T03:04:03;24.47;;;16.80;;
10872;SDS011;34586;53.616;10.032;2024-03-08T03:06:29;24.50;;;16.20;;
10872;SDS011;34586;53.616;10.032;2024-03-08T03:08:54;27.53;;;17.33;;
10872;SDS011;34586;53.616;10.032;2024-03-08T03:11:22;24.27;;;16.17;;
10872;SDS011;34586;53.616;10.032;2024-03-08T03:13:48;27.77;;;17.80;;
10872;SDS011;34586;53.616;10.032;2024-03-08T03:16:17;26.47;;;16.80;;
10872;SDS011;34586;53.616;10.032;2024-03-08T03:18:44;27.07;;;17.47;;
10872;SDS011;34586;53.616;10.032;2024-03-08T03:21:10;25.50;;;17.90;;
10872;SDS011;34586;53.616;10.032;2024-03-08T03:23:38;25.53;;;17.47;;
10872;SDS011;34586;53.616;10.032;2024-03-08T03:26:09;27.53;;;17.17;;
10872;SDS011;34586;53.616;10.032;2024-03-08T03:28:38;24.87;;;17.47;;
10872;SDS011;34586;53.616;10.032;2024-03-08T03:31:06;24.77;;;17.03;;
10872;SDS011;34586;53.616;10.032;2024-03-08T03:33:32;24.23;;;17.33;;
10872;SDS011;34586;53.616;10.032;2024-03-08T03:35:59;27.23;;;18.67;;
10872;SDS011;34586;53.616;10.032;2024-03-08T03:38:25;24.07;;;17.13;;
10872;SDS011;34586;53.616;10.032;2024-03-08T03:40:52;28.27;;;17.73;;
10872;SDS011;34586;53.616;10.032;2024-03-08T03:43:22;26.77;;;17.43;;
10872;SDS011;34586;53.616;10.032;2024-03-08T03:45:51;30.27;;;17.83;;
10872;SDS011;34586;53.616;10.032;2024-03-08T03:48:16;26.07;;;17.30;;
10872;SDS011;34586;53.616;10.032;2024-03-08T03:50:42;25.97;;;17.20;;
10872;SDS011;34586;53.616;10.032;2024-03-08T03:53:07;27.43;;;17.30;;
10872;SDS011;34586;53.616;10.032;2024-03-08T03:55:33;26.47;;;16.90;;
10872;SDS011;34586;53.616;10.032;2024-03-08T03:57:59;25.40;;;16.97;;
10872;SDS011;34586;53.616;10.032;2024-03-08T04:00:26;28.57;;;17.90;;
10872;SDS011;34586;53.616;10.032;2024-03-08T04:02:52;28.43;;;18.67;;
10872;SDS011;34586;53.616;10.032;2024-03-08T04:05:17;26.90;;;17.40;;
10872;SDS011;34586;53.616;10.032;2024-03-08T04:07:43;28.57;;;16.67;;
10872;SDS011;34586;53.616;10.032;2024-03-08T04:10:11;31.00;;;17.07;;
10872;SDS011;34586;53.616;10.032;2024-03-08T04:12:37;26.10;;;17.80;;
10872;SDS011;34586;53.616;10.032;2024-03-08T04:15:03;28.80;;;18.43;;
10872;SDS011;34586;53.616;10.032;2024-03-08T04:17:32;28.60;;;18.43;;
10872;SDS011;34586;53.616;10.032;2024-03-08T04:19:58;27.37;;;18.50;;
10872;SDS011;34586;53.616;10.032;2024-03-08T04:22:23;27.23;;;18.30;;
10872;SDS011;34586;53.616;10.032;2024-03-08T04:24:49;32.13;;;18.07;;
10872;SDS011;34586;53.616;10.032;2024-03-08T04:27:15;27.43;;;17.80;;
10872;SDS011;34586;53.616;10.032;2024-03-08T04:29:41;27.97;;;18.27;;
10872;SDS011;34586;53.616;10.032;2024-03-08T04:32:07;28.80;;;18.63;;
10872;SDS011;34586;53.616;10.032;2024-03-08T04:34:33;26.57;;;17.10;;
10872;SDS011;34586;53.616;10.032;2024-03-08T04:36:59;29.27;;;18.07;;
10872;SDS011;34586;53.616;10.032;2024-03-08T04:39:26;27.20;;;17.70;;
10872;SDS011;34586;53.616;10.032;2024-03-08T04:41:55;25.27;;;17.03;;
10872;SDS011;34586;53.616;10.032;2024-03-08T04:44:26;27.57;;;17.73;;
10872;SDS011;34586;53.616;10.032;2024-03-08T04:46:51;26.13;;;17.10;;
10872;SDS011;34586;53.616;10.032;2024-03-08T04:49:17;29.30;;;18.53;;
10872;SDS011;34586;53.616;10.032;2024-03-08T04:51:43;28.23;;;18.47;;
10872;SDS011;34586;53.616;10.032;2024-03-08T04:54:10;28.00;;;18.10;;
10872;SDS011;34586;53.616;10.032;2024-03-08T04:56:35;29.10;;;17.60;;
10872;SDS011;34586;53.616;10.032;2024-03-08T04:59:01;27.47;;;19.00;;
10872;SDS011;34586;53.616;10.032;2024-03-08T05:01:26;29.70;;;18.57;;
10872;SDS011;34586;53.616;10.032;2024-03-08T05:03:52;27.40;;;18.63;;
10872;SDS011;34586;53.616;10.032;2024-03-08T05:06:20;30.33;;;18.00;;
10872;SDS011;34586;53.616;10.032;2024-03-08T05:08:45;29.53;;;18.10;;
10872;SDS011;34586;53.616;10.032;2024-03-08T05:11:11;29.13;;;17.67;;
10872;SDS011;34586;53.616;10.032;2024-03-08T05:13:39;27.37;;;18.03;;
10872;SDS011;34586;53.616;10.032;2024-03-08T05:16:05;30.10;;;18.63;;
10872;SDS011;34586;53.616;10.032;2024-03-08T05:18:32;28.83;;;17.93;;
10872;SDS011;34586;53.616;10.032;2024-03-08T05:20:58;31.57;;;19.30;;
10872;SDS011;34586;53.616;10.032;2024-03-08T05:23:24;27.00;;;17.77;;
10872;SDS011;34586;53.616;10.032;2024-03-08T05:25:49;29.57;;;19.10;;
10872;SDS011;34586;53.616;10.032;2024-03-08T05:28:15;26.63;;;18.13;;
10872;SDS011;34586;53.616;10.032;2024-03-08T05:30:41;30.77;;;18.83;;
10872;SDS011;34586;53.616;10.032;2024-03-08T05:33:06;28.53;;;18.60;;
10872;SDS011;34586;53.616;10.032;2024-03-08T05:35:35;32.27;;;19.07;;
10872;SDS011;34586;53.616;10.032;2024-03-08T05:38:01;35.23;;;19.93;;
10872;SDS011;34586;53.616;10.032;2024-03-08T05:40:27;29.07;;;18.53;;
10872;SDS011;34586;53.616;10.032;2024-03-08T05:42:56;28.83;;;19.00;;
10872;SDS011;34586;53.616;10.032;2024-03-08T05:45:23;27.80;;;18.17;;
10872;SDS011;34586;53.616;10.032;2024-03-08T05:47:50;32.63;;;19.37;;
10872;SDS011;34586;53.616;10.032;2024-03-08T05:50:16;36.13;;;19.57;;
10872;SDS011;34586;53.616;10.032;2024-03-08T05:52:42;30.23;;;19.50;;
10872;SDS011;34586;53.616;10.032;2024-03-08T05:55:08;33.60;;;20.03;;
10872;SDS011;34586;53.616;10.032;2024-03-08T05:57:34;31.70;;;20.10;;
10872;SDS011;34586;53.616;10.032;2024-03-08T06:00:03;30.90;;;19.37;;
10872;SDS011;34586;53.616;10.032;2024-03-08T06:02:29;31.63;;;19.60;;
10872;SDS011;34586;53.616;10.032;2024-03-08T06:04:54;34.73;;;19.70;;
10872;SDS011;34586;53.616;10.032;2024-03-08T06:07:20;31.47;;;19.73;;
10872;SDS011;34586;53.616;10.032;2024-03-08T06:09:46;34.27;;;20.17;;
10872;SDS011;34586;53.616;10.032;2024-03-08T06:12:13;32.73;;;19.83;;
10872;SDS011;34586;53.616;10.032;2024-03-08T06:14:43;29.70;;;20.37;;
10872;SDS011;34586;53.616;10.032;2024-03-08T06:17:09;32.53;;;19.77;;
10872;SDS011;34586;53.616;10.032;2024-03-08T06:19:36;29.40;;;18.80;;
10872;SDS011;34586;53.616;10.032;2024-03-08T06:22:01;30.60;;;19.60;;
10872;SDS011;34586;53.616;10.032;2024-03-08T06:24:30;29.70;;;18.53;;
10872;SDS011;34586;53.616;10.032;2024-03-08T06:26:56;34.07;;;19.50;;
10872;SDS011;34586;53.616;10.032;2024-03-08T06:29:22;29.83;;;19.73;;
10872;SDS011;34586;53.616;10.032;2024-03-08T06:31:48;27.77;;;18.67;;
10872;SDS011;34586;53.616;10.032;2024-03-08T06:34:14;29.17;;;19.27;;
10872;SDS011;34586;53.616;10.032;2024-03-08T06:36:40;31.17;;;20.47;;
10872;SDS011;34586;53.616;10.032;2024-03-08T06:39:06;32.87;;;19.87;;
10872;SDS011;34586;53.616;10.032;2024-03-08T06:41:35;29.80;;;19.60;;
10872;SDS011;34586;53.616;10.032;2024-03-08T06:44:01;31.13;;;19.53;;
10872;SDS011;34586;53.616;10.032;2024-03-08T06:46:27;30.47;;;20.47;;
10872;SDS011;34586;53.616;10.032;2024-03-08T06:48:53;30.63;;;19.40;;
10872;SDS011;34586;53.616;10.032;2024-03-08T06:51:18;26.77;;;18.87;;
10872;SDS011;34586;53.616;10.032;2024-03-08T06:53:44;33.10;;;19.73;;
10872;SDS011;34586;53.616;10.032;2024-03-08T06:56:10;29.20;;;20.07;;
10872;SDS011;34586;53.616;10.032;2024-03-08T06:58:36;30.40;;;19.43;;
10872;SDS011;34586;53.616;10.032;2024-03-08T07:01:02;32.07;;;19.77;;
10872;SDS011;34586;53.616;10.032;2024-03-08T07:03:30;30.60;;;20.43;;
10872;SDS011;34586;53.616;10.032;2024-03-08T07:05:57;28.67;;;19.63;;
10872;SDS011;34586;53.616;10.032;2024-03-08T07:08:23;34.73;;;21.30;;
10872;SDS011;34586;53.616;10.032;2024-03-08T07:10:49;32.17;;;20.53;;
10872;SDS011;34586;53.616;10.032;2024-03-08T07:13:15;32.20;;;20.13;;
10872;SDS011;34586;53.616;10.032;2024-03-08T07:15:41;29.63;;;20.17;;
10872;SDS011;34586;53.616;10.032;2024-03-08T07:18:08;30.20;;;19.07;;
10872;SDS011;34586;53.616;10.032;2024-03-08T07:20:34;32.27;;;21.13;;
10872;SDS011;34586;53.616;10.032;2024-03-08T07:23:00;29.87;;;19.53;;
10872;SDS011;34586;53.616;10.032;2024-03-08T07:25:26;29.50;;;19.50;;
10872;SDS011;34586;53.616;10.032;2024-03-08T07:27:54;31.00;;;20.43;;
10872;SDS011;34586;53.616;10.032;2024-03-08T07:30:24;30.63;;;20.60;;
10872;SDS011;34586;53.616;10.032;2024-03-08T07:33:09;32.37;;;20.30;;
10872;SDS011;34586;53.616;10.032;2024-03-08T07:35:37;26.77;;;18.70;;
10872;SDS011;34586;53.616;10.032;2024-03-08T07:38:07;30.57;;;19.97;;
10872;SDS011;34586;53.616;10.032;2024-03-08T07:40:37;25.57;;;18.43;;
10872;SDS011;34586;53.616;10.032;2024-03-08T07:43:06;31.70;;;20.27;;
10872;SDS011;34586;53.616;10.032;2024-03-08T07:45:32;28.03;;;19.67;;
10872;SDS011;34586;53.616;10.032;2024-03-08T07:47:58;30.70;;;19.50;;
10872;SDS011;34586;53.616;10.032;2024-03-08T07:50:23;29.90;;;19.67;;
10872;SDS011;34586;53.616;10.032;2024-03-08T07:52:49;27.43;;;19.07;;
10872;SDS011;34586;53.616;10.032;2024-03-08T07:55:14;28.70;;;19.57;;
10872;SDS011;34586;53.616;10.032;2024-03-08T07:57:40;29.40;;;20.47;;
10872;SDS011;34586;53.616;10.032;2024-03-08T08:00:07;29.03;;;20.73;;
10872;SDS011;34586;53.616;10.032;2024-03-08T08:02:34;26.77;;;19.33;;
10872;SDS011;34586;53.616;10.032;2024-03-08T08:05:00;30.60;;;19.93;;
10872;SDS011;34586;53.616;10.032;2024-03-08T08:07:26;31.10;;;20.23;;
10872;SDS011;34586;53.616;10.032;2024-03-08T08:09:52;27.87;;;18.93;;
10872;SDS011;34586;53.616;10.032;2024-03-08T08:12:18;27.70;;;19.07;;
10872;SDS011;34586;53.616;10.032;2024-03-08T08:14:44;28.33;;;19.63;;
10872;SDS011;34586;53.616;10.032;2024-03-08T08:17:09;28.33;;;19.37;;
10872;SDS011;34586;53.616;10.032;2024-03-08T08:19:35;28.30;;;20.67;;
10872;SDS011;34586;53.616;10.032;2024-03-08T08:22:01;26.47;;;19.57;;
10872;SDS011;34586;53.616;10.032;2024-03-08T08:24:27;27.77;;;19.40;;
10872;SDS011;34586;53.616;10.032;2024-03-08T08:26:53;30.17;;;20.10;;
10872;SDS011;34586;53.616;10.032;2024-03-08T08:29:18;26.83;;;19.17;;
10872;SDS011;34586;53.616;10.032;2024-03-08T08:31:45;26.93;;;19.63;;
10872;SDS011;34586;53.616;10.032;2024-03-08T08:34:11;29.07;;;19.70;;
10872;SDS011;34586;53.616;10.032;2024-03-08T08:36:38;26.57;;;19.53;;
10872;SDS011;34586;53.616;10.032;2024-03-08T08:39:04;27.23;;;19.40;;
10872;SDS011;34586;53.616;10.032;2024-03-08T08:41:37;26.33;;;19.40;;
10872;SDS011;34586;53.616;10.032;2024-03-08T08:44:02;24.57;;;18.87;;
10872;SDS011;34586;53.616;10.032;2024-03-08T08:46:28;26.33;;;18.97;;
10872;SDS011;34586;53.616;10.032;2024-03-08T08:48:54;26.90;;;19.90;;
10872;SDS011;34586;53.616;10.032;2024-03-08T08:51:20;27.40;;;19.43;;
10872;SDS011;34586;53.616;10.032;2024-03-08T08:53:48;25.47;;;18.57;;
10872;SDS011;34586;53.616;10.032;2024-03-08T08:56:13;27.47;;;18.80;;
10872;SDS011;34586;53.616;10.032;2024-03-08T08:58:39;27.03;;;20.17;;
10872;SDS011;34586;53.616;10.032;2024-03-08T09:01:08;26.90;;;19.57;;
10872;SDS011;34586;53.616;10.032;2024-03-08T09:03:37;23.93;;;18.00;;
10872;SDS011;34586;53.616;10.032;2024-03-08T09:06:05;25.33;;;18.97;;
10872;SDS011;34586;53.616;10.032;2024-03-08T09:08:35;24.60;;;18.53;;
10872;SDS011;34586;53.616;10.032;2024-03-08T09:11:01;26.37;;;19.80;;
10872;SDS011;34586;53.616;10.032;2024-03-08T09:13:27;27.60;;;19.97;;
10872;SDS011;34586;53.616;10.032;2024-03-08T09:15:52;25.53;;;18.63;;
10872;SDS011;34586;53.616;10.032;2024-03-08T09:18:18;25.93;;;18.07;;
10872;SDS011;34586;53.616;10.032;2024-03-08T09:20:44;24.07;;;18.40;;
10872;SDS011;34586;53.616;10.032;2024-03-08T09:23:10;26.20;;;19.10;;
10872;SDS011;34586;53.616;10.032;2024-03-08T09:25:35;26.73;;;18.70;;
10872;SDS011;34586;53.616;10.032;2024-03-08T09:28:01;27.77;;;19.57;;
10872;SDS011;34586;53.616;10.032;2024-03-08T09:30:26;26.73;;;18.93;;
10872;SDS011;34586;53.616;10.032;2024-03-08T09:32:52;26.03;;;19.03;;
10872;SDS011;34586;53.616;10.032;2024-03-08T09:35:18;26.57;;;20.13;;
10872;SDS011;34586;53.616;10.032;2024-03-08T09:37:44;23.97;;;18.77;;
10872;SDS011;34586;53.616;10.032;2024-03-08T09:40:12;26.43;;;19.43;;
10872;SDS011;34586;53.616;10.032;2024-03-08T09:42:40;26.20;;;18.83;;
10872;SDS011;34586;53.616;10.032;2024-03-08T09:45:08;23.07;;;17.33;;
10872;SDS011;34586;53.616;10.032;2024-03-08T09:47:42;30.20;;;17.37;;
10872;SDS011;34586;53.616;10.032;2024-03-08T09:50:09;25.13;;;17.73;;
10872;SDS011;34586;53.616;10.032;2024-03-08T09:52:37;24.27;;;18.30;;
10872;SDS011;34586;53.616;10.032;2024-03-08T09:55:05;23.40;;;17.60;;
10872;SDS011;34586;53.616;10.032;2024-03-08T09:57:36;22.23;;;17.57;;
10872;SDS011;34586;53.616;10.032;2024-03-08T10:00:02;27.67;;;18.17;;
10872;SDS011;34586;53.616;10.032;2024-03-08T10:02:46;25.07;;;16.77;;
10872;SDS011;34586;53.616;10.032;2024-03-08T10:05:13;23.93;;;16.33;;
10872;SDS011;34586;53.616;10.032;2024-03-08T10:07:39;24.23;;;17.50;;
10872;SDS011;34586;53.616;10.032;2024-03-08T10:10:05;23.07;;;17.77;;
10872;SDS011;34586;53.616;10.032;2024-03-08T10:12:33;26.17;;;18.30;;
10872;SDS011;34586;53.616;10.032;2024-03-08T10:15:01;22.60;;;16.53;;
10872;SDS011;34586;53.616;10.032;2024-03-08T10:17:27;23.00;;;17.90;;
10872;SDS011;34586;53.616;10.032;2024-03-08T10:19:57;23.13;;;17.37;;
10872;SDS011;34586;53.616;10.032;2024-03-08T10:22:25;26.80;;;18.37;;
10872;SDS011;34586;53.616;10.032;2024-03-08T10:24:50;22.77;;;17.07;;
10872;SDS011;34586;53.616;10.032;2024-03-08T10:27:17;23.73;;;18.10;;
10872;SDS011;34586;53.616;10.032;2024-03-08T10:29:45;23.97;;;17.83;;
10872;SDS011;34586;53.616;10.032;2024-03-08T10:32:12;25.03;;;17.70;;
10872;SDS011;34586;53.616;10.032;2024-03-08T10:34:38;24.50;;;17.93;;
10872;SDS011;34586;53.616;10.032;2024-03-08T10:37:04;24.03;;;16.97;;
10872;SDS011;34586;53.616;10.032;2024-03-08T10:39:36;26.20;;;17.90;;
10872;SDS011;34586;53.616;10.032;2024-03-08T10:42:02;22.57;;;17.03;;
10872;SDS011;34586;53.616;10.032;2024-03-08T10:49:36;21.23;;;16.53;;
10872;SDS011;34586;53.616;10.032;2024-03-08T10:52:04;21.17;;;16.93;;
10872;SDS011;34586;53.616;10.032;2024-03-08T10:54:33;20.40;;;16.30;;
10872;SDS011;34586;53.616;10.032;2024-03-08T10:57:03;23.43;;;16.77;;
10872;SDS011;34586;53.616;10.032;2024-03-08T10:59:30;22.80;;;16.33;;
10872;SDS011;34586;53.616;10.032;2024-03-08T11:01:58;21.30;;;15.13;;
10872;SDS011;34586;53.616;10.032;2024-03-08T11:04:24;21.90;;;15.57;;
10872;SDS011;34586;53.616;10.032;2024-03-08T11:06:50;21.50;;;15.90;;
10872;SDS011;34586;53.616;10.032;2024-03-08T11:09:37;19.67;;;15.37;;
10872;SDS011;34586;53.616;10.032;2024-03-08T11:14:50;21.43;;;15.43;;
10872;SDS011;34586;53.616;10.032;2024-03-08T11:19:57;19.57;;;15.00;;
10872;SDS011;34586;53.616;10.032;2024-03-08T11:22:32;22.10;;;15.97;;
10872;SDS011;34586;53.616;10.032;2024-03-08T11:25:02;18.50;;;14.53;;
10872;SDS011;34586;53.616;10.032;2024-03-08T11:27:33;19.67;;;15.60;;
10872;SDS011;34586;53.616;10.032;2024-03-08T11:30:00;17.63;;;14.40;;
10872;SDS011;34586;53.616;10.032;2024-03-08T11:32:35;23.60;;;15.30;;
10872;SDS011;34586;53.616;10.032;2024-03-08T11:35:01;22.53;;;15.50;;
10872;SDS011;34586;53.616;10.032;2024-03-08T11:37:30;21.97;;;16.07;;
10872;SDS011;34586;53.616;10.032;2024-03-08T11:39:59;18.53;;;14.00;;
10872;SDS011;34586;53.616;10.032;2024-03-08T11:42:27;18.53;;;13.97;;
10872;SDS011;34586;53.616;10.032;2024-03-08T11:44:52;17.83;;;13.97;;
10872;SDS011;34586;53.616;10.032;2024-03-08T11:47:18;19.83;;;15.40;;
10872;SDS011;34586;53.616;10.032;2024-03-08T11:49:46;19.03;;;14.57;;
10872;SDS011;34586;53.616;10.032;2024-03-08T11:52:13;21.17;;;15.00;;
10872;SDS011;34586;53.616;10.032;2024-03-08T11:54:40;20.23;;;14.73;;
10872;SDS011;34586;53.616;10.032;2024-03-08T11:57:07;19.53;;;14.83;;
10872;SDS011;34586;53.616;10.032;2024-03-08T11:59:34;19.83;;;14.53;;
10872;SDS011;34586;53.616;10.032;2024-03-08T12:02:04;21.43;;;15.87;;
10872;SDS011;34586;53.616;10.032;2024-03-08T12:04:31;19.37;;;15.07;;
10872;SDS011;34586;53.616;10.032;2024-03-08T12:07:00;23.97;;;15.83;;
10872;SDS011;34586;53.616;10.032;2024-03-08T12:09:27;19.33;;;14.87;;
10872;SDS011;34586;53.616;10.032;2024-03-08T12:11:53;19.00;;;14.77;;
10872;SDS011;34586;53.616;10.032;2024-03-08T12:14:19;18.17;;;14.27;;
10872;SDS011;34586;53.616;10.032;2024-03-08T12:16:46;17.57;;;14.27;;
10872;SDS011;34586;53.616;10.032;2024-03-08T12:19:13;20.53;;;14.50;;
10872;SDS011;34586;53.616;10.032;2024-03-08T12:21:39;19.20;;;13.23;;
10872;SDS011;34586;53.616;10.032;2024-03-08T12:24:13;16.30;;;13.17;;
10872;SDS011;34586;53.616;10.032;2024-03-08T12:26:41;19.70;;;15.53;;
10872;SDS011;34586;53.616;10.032;2024-03-08T12:29:20;19.30;;;14.13;;
10872;SDS011;34586;53.616;10.032;2024-03-08T12:31:53;18.53;;;14.43;;
10872;SDS011;34586;53.616;10.032;2024-03-08T12:34:19;18.73;;;15.03;;
10872;SDS011;34586;53.616;10.032;2024-03-08T12:36:48;17.13;;;13.40;;
10872;SDS011;34586;53.616;10.032;2024-03-08T12:39:17;18.83;;;13.80;;
10872;SDS011;34586;53.616;10.032;2024-03-08T12:41:47;16.97;;;13.10;;
10872;SDS011;34586;53.616;10.032;2024-03-08T12:44:16;17.50;;;13.17;;
10872;SDS011;34586;53.616;10.032;2024-03-08T12:46:44;19.00;;;14.17;;
10872;SDS011;34586;53.616;10.032;2024-03-08T12:49:10;16.30;;;13.20;;
10872;SDS011;34586;53.616;10.032;2024-03-08T12:51:37;15.60;;;12.70;;
10872;SDS011;34586;53.616;10.032;2024-03-08T12:54:04;17.50;;;14.07;;
10872;SDS011;34586;53.616;10.032;2024-03-08T12:56:33;17.57;;;13.87;;
10872;SDS011;34586;53.616;10.032;2024-03-08T12:58:59;18.23;;;13.80;;
10872;SDS011;34586;53.616;10.032;2024-03-08T13:01:26;17.27;;;13.30;;
10872;SDS011;34586;53.616;10.032;2024-03-08T13:03:52;18.30;;;13.50;;
10872;SDS011;34586;53.616;10.032;2024-03-08T13:06:19;15.27;;;12.53;;
10872;SDS011;34586;53.616;10.032;2024-03-08T13:08:49;16.30;;;12.37;;
10872;SDS011;34586;53.616;10.032;2024-03-08T13:11:16;16.90;;;12.47;;
10872;SDS011;34586;53.616;10.032;2024-03-08T13:13:42;19.70;;;12.63;;
10872;SDS011;34586;53.616;10.032;2024-03-08T13:16:09;14.80;;;12.33;;
10872;SDS011;34586;53.616;10.032;2024-03-08T13:18:37;14.60;;;12.50;;
10872;SDS011;34586;53.616;10.032;2024-03-08T13:21:03;15.13;;;12.50;;
10872;SDS011;34586;53.616;10.032;2024-03-08T13:23:32;16.73;;;13.07;;
10872;SDS011;34586;53.616;10.032;2024-03-08T13:26:04;15.40;;;12.77;;
10872;SDS011;34586;53.616;10.032;2024-03-08T13:28:30;17.80;;;12.97;;
10872;SDS011;34586;53.616;10.032;2024-03-08T13:30:56;16.80;;;13.53;;
10872;SDS011;34586;53.616;10.032;2024-03-08T13:33:26;19.17;;;12.93;;
10872;SDS011;34586;53.616;10.032;2024-03-08T13:35:52;15.10;;;11.33;;
10872;SDS011;34586;53.616;10.032;2024-03-08T13:38:18;17.73;;;12.60;;
10872;SDS011;34586;53.616;10.032;2024-03-08T13:40:45;14.20;;;11.57;;
10872;SDS011;34586;53.616;10.032;2024-03-08T13:43:14;13.90;;;11.10;;
10872;SDS011;34586;53.616;10.032;2024-03-08T13:45:39;14.63;;;11.87;;
10872;SDS011;34586;53.616;10.032;2024-03-08T13:48:06;15.43;;;11.83;;
10872;SDS011;34586;53.616;10.032;2024-03-08T13:50:32;15.97;;;11.50;;
10872;SDS011;34586;53.616;10.032;2024-03-08T13:52:57;17.03;;;11.27;;
10872;SDS011;34586;53.616;10.032;2024-03-08T13:55:23;14.37;;;11.23;;
10872;SDS011;34586;53.616;10.032;2024-03-08T13:57:52;15.10;;;11.63;;
10872;SDS011;34586;53.616;10.032;2024-03-08T14:00:17;13.30;;;11.70;;
10872;SDS011;34586;53.616;10.032;2024-03-08T14:02:47;12.90;;;10.30;;
10872;SDS011;34586;53.616;10.032;2024-03-08T14:05:13;14.50;;;10.67;;
10872;SDS011;34586;53.616;10.032;2024-03-08T14:07:41;17.07;;;11.53;;
10872;SDS011;34586;53.616;10.032;2024-03-08T14:10:06;15.77;;;11.40;;
10872;SDS011;34586;53.616;10.032;2024-03-08T14:12:34;14.13;;;10.70;;
10872;SDS011;34586;53.616;10.032;2024-03-08T14:15:00;13.63;;;11.40;;
10872;SDS011;34586;53.616;10.032;2024-03-08T14:17:26;12.77;;;10.17;;